sensor_id;sensor_type;location;lat;lon;timestamp;P1;durP1;ratioP1;P2;durP2;ratioP2
253;SDS011;590;48.772;8.846;2023-02-15T00:00:07;9.50;;;9.00;;
253;SDS011;590;48.772;8.846;2023-02-15T00:02:37;8.70;;;8.20;;
253;SDS011;590;48.772;8.846;2023-02-15T00:05:06;8.87;;;8.37;;
253;SDS011;590;48.772;8.846;2023-02-15T00:07:34;9.03;;;8.50;;
253;SDS011;590;48.772;8.846;2023-02-15T00:10:03;9.40;;;8.90;;
253;SDS011;590;48.772;8.846;2023-02-15T00:12:31;8.90;;;8.40;;
253;SDS011;590;48.772;8.846;2023-02-15T00:15:01;8.23;;;7.83;;
253;SDS011;590;48.772;8.846;2023-02-15T00:17:29;8.63;;;8.13;;
253;SDS011;590;48.772;8.846;2023-02-15T00:19:57;9.23;;;8.73;;
253;SDS011;590;48.772;8.846;2023-02-15T00:22:25;9.33;;;8.83;;
253;SDS011;590;48.772;8.846;2023-02-15T00:24:53;9.23;;;8.73;;
253;SDS011;590;48.772;8.846;2023-02-15T00:27:21;8.63;;;8.13;;
253;SDS011;590;48.772;8.846;2023-02-15T00:29:50;8.70;;;8.20;;
253;SDS011;590;48.772;8.846;2023-02-15T00:32:19;8.03;;;7.63;;
253;SDS011;590;48.772;8.846;2023-02-15T00:34:47;8.67;;;8.17;;
253;SDS011;590;48.772;8.846;2023-02-15T00:37:15;9.10;;;8.60;;
253;SDS011;590;48.772;8.846;2023-02-15T00:39:43;9.07;;;8.57;;
253;SDS011;590;48.772;8.846;2023-02-15T00:42:11;9.07;;;8.57;;
253;SDS011;590;48.772;8.846;2023-02-15T00:44:39;9.10;;;8.60;;
253;SDS011;590;48.772;8.846;2023-02-15T00:47:07;8.90;;;8.40;;
253;SDS011;590;48.772;8.846;2023-02-15T00:49:36;8.80;;;8.30;;
253;SDS011;590;48.772;8.846;2023-02-15T00:52:04;9.20;;;8.70;;
253;SDS011;590;48.772;8.846;2023-02-15T00:54:32;9.37;;;8.87;;
253;SDS011;590;48.772;8.846;2023-02-15T00:57:00;9.17;;;8.67;;
253;SDS011;590;48.772;8.846;2023-02-15T00:59:28;9.87;;;9.37;;
253;SDS011;590;48.772;8.846;2023-02-15T01:01:56;9.27;;;8.77;;
253;SDS011;590;48.772;8.846;2023-02-15T01:04:24;8.63;;;8.13;;
253;SDS011;590;48.772;8.846;2023-02-15T01:06:53;9.17;;;8.67;;
253;SDS011;590;48.772;8.846;2023-02-15T01:09:21;8.27;;;7.83;;
253;SDS011;590;48.772;8.846;2023-02-15T01:11:49;9.30;;;8.80;;
253;SDS011;590;48.772;8.846;2023-02-15T01:14:17;9.50;;;9.00;;
253;SDS011;590;48.772;8.846;2023-02-15T01:16:45;8.93;;;8.43;;
253;SDS011;590;48.772;8.846;2023-02-15T01:19:13;8.17;;;7.77;;
253;SDS011;590;48.772;8.846;2023-02-15T01:21:42;8.53;;;8.03;;
253;SDS011;590;48.772;8.846;2023-02-15T01:24:12;9.00;;;8.50;;
253;SDS011;590;48.772;8.846;2023-02-15T01:26:40;8.57;;;8.07;;
253;SDS011;590;48.772;8.846;2023-02-15T01:29:08;8.97;;;8.47;;
253;SDS011;590;48.772;8.846;2023-02-15T01:31:36;8.73;;;8.23;;
253;SDS011;590;48.772;8.846;2023-02-15T01:34:05;8.60;;;8.10;;
253;SDS011;590;48.772;8.846;2023-02-15T01:36:33;9.40;;;8.90;;
253;SDS011;590;48.772;8.846;2023-02-15T01:39:02;8.37;;;7.93;;
253;SDS011;590;48.772;8.846;2023-02-15T01:41:31;9.47;;;8.97;;
253;SDS011;590;48.772;8.846;2023-02-15T01:44:00;8.67;;;8.17;;
253;SDS011;590;48.772;8.846;2023-02-15T01:46:30;9.30;;;8.80;;
253;SDS011;590;48.772;8.846;2023-02-15T01:49:03;9.20;;;8.70;;
253;SDS011;590;48.772;8.846;2023-02-15T01:51:38;8.77;;;8.27;;
253;SDS011;590;48.772;8.846;2023-02-15T01:54:10;8.33;;;7.90;;
253;SDS011;590;48.772;8.846;2023-02-15T01:56:45;9.50;;;9.00;;
253;SDS011;590;48.772;8.846;2023-02-15T01:59:18;10.13;;;9.63;;
253;SDS011;590;48.772;8.846;2023-02-15T02:01:48;8.67;;;8.17;;
253;SDS011;590;48.772;8.846;2023-02-15T02:04:18;9.67;;;9.17;;
253;SDS011;590;48.772;8.846;2023-02-15T02:06:52;9.13;;;8.63;;
253;SDS011;590;48.772;8.846;2023-02-15T02:09:21;9.00;;;8.50;;
253;SDS011;590;48.772;8.846;2023-02-15T02:11:50;8.23;;;7.83;;
253;SDS011;590;48.772;8.846;2023-02-15T02:14:20;9.60;;;9.10;;
253;SDS011;590;48.772;8.846;2023-02-15T02:16:51;9.10;;;8.60;;
253;SDS011;590;48.772;8.846;2023-02-15T02:19:40;8.73;;;8.23;;
253;SDS011;590;48.772;8.846;2023-02-15T02:25:34;8.77;;;8.27;;
253;SDS011;590;48.772;8.846;2023-02-15T02:31:31;10.10;;;9.60;;
253;SDS011;590;48.772;8.846;2023-02-15T02:34:28;9.00;;;8.50;;
253;SDS011;590;48.772;8.846;2023-02-15T02:36:58;9.70;;;9.20;;
253;SDS011;590;48.772;8.846;2023-02-15T02:39:33;9.13;;;8.63;;
253;SDS011;590;48.772;8.846;2023-02-15T02:42:09;8.87;;;8.37;;
253;SDS011;590;48.772;8.846;2023-02-15T02:44:43;9.17;;;8.67;;
253;SDS011;590;48.772;8.846;2023-02-15T02:47:16;9.40;;;8.90;;
253;SDS011;590;48.772;8.846;2023-02-15T02:49:57;8.00;;;7.60;;
253;SDS011;590;48.772;8.846;2023-02-15T02:52:37;8.83;;;8.33;;
253;SDS011;590;48.772;8.846;2023-02-15T02:55:08;8.90;;;8.40;;
253;SDS011;590;48.772;8.846;2023-02-15T02:57:41;8.33;;;7.90;;
253;SDS011;590;48.772;8.846;2023-02-15T03:00:15;9.20;;;8.70;;
253;SDS011;590;48.772;8.846;2023-02-15T03:02:46;8.93;;;8.43;;
253;SDS011;590;48.772;8.846;2023-02-15T03:05:18;9.33;;;8.83;;
253;SDS011;590;48.772;8.846;2023-02-15T03:07:51;8.97;;;8.47;;
253;SDS011;590;48.772;8.846;2023-02-15T03:10:23;8.97;;;8.47;;
253;SDS011;590;48.772;8.846;2023-02-15T03:12:52;8.63;;;8.13;;
253;SDS011;590;48.772;8.846;2023-02-15T03:15:22;8.20;;;7.80;;
253;SDS011;590;48.772;8.846;2023-02-15T03:18:14;8.27;;;7.87;;
253;SDS011;590;48.772;8.846;2023-02-15T03:21:12;8.87;;;8.37;;
253;SDS011;590;48.772;8.846;2023-02-15T03:23:50;9.03;;;8.53;;
253;SDS011;590;48.772;8.846;2023-02-15T03:26:22;9.27;;;8.80;;
253;SDS011;590;48.772;8.846;2023-02-15T03:28:52;7.77;;;7.37;;
253;SDS011;590;48.772;8.846;2023-02-15T03:31:23;8.87;;;8.37;;
253;SDS011;590;48.772;8.846;2023-02-15T03:33:57;8.50;;;8.00;;
253;SDS011;590;48.772;8.846;2023-02-15T03:36:30;9.20;;;8.70;;
253;SDS011;590;48.772;8.846;2023-02-15T03:39:05;8.50;;;8.00;;
253;SDS011;590;48.772;8.846;2023-02-15T03:41:39;8.20;;;7.80;;
253;SDS011;590;48.772;8.846;2023-02-15T03:44:13;8.17;;;7.77;;
253;SDS011;590;48.772;8.846;2023-02-15T03:46:47;8.30;;;7.90;;
253;SDS011;590;48.772;8.846;2023-02-15T03:49:20;9.50;;;9.00;;
253;SDS011;590;48.772;8.846;2023-02-15T03:51:59;8.87;;;8.37;;
253;SDS011;590;48.772;8.846;2023-02-15T03:55:03;8.57;;;8.07;;
253;SDS011;590;48.772;8.846;2023-02-15T03:57:32;8.23;;;7.83;;
253;SDS011;590;48.772;8.846;2023-02-15T04:00:22;8.27;;;7.83;;
253;SDS011;590;48.772;8.846;2023-02-15T04:03:12;8.97;;;8.47;;
253;SDS011;590;48.772;8.846;2023-02-15T04:30:49;8.20;;;7.80;;
253;SDS011;590;48.772;8.846;2023-02-15T06:16:04;7.60;;;7.20;;
253;SDS011;590;48.772;8.846;2023-02-15T06:18:32;7.53;;;7.13;;
253;SDS011;590;48.772;8.846;2023-02-15T06:21:01;7.60;;;7.20;;
253;SDS011;590;48.772;8.846;2023-02-15T06:23:29;7.93;;;7.53;;
253;SDS011;590;48.772;8.846;2023-02-15T06:25:57;7.67;;;7.27;;
253;SDS011;590;48.772;8.846;2023-02-15T06:28:25;7.87;;;7.47;;
253;SDS011;590;48.772;8.846;2023-02-15T06:30:53;6.90;;;6.50;;
253;SDS011;590;48.772;8.846;2023-02-15T06:33:22;7.27;;;6.87;;
253;SDS011;590;48.772;8.846;2023-02-15T06:35:51;7.93;;;7.53;;
253;SDS011;590;48.772;8.846;2023-02-15T06:38:19;7.40;;;7.00;;
253;SDS011;590;48.772;8.846;2023-02-15T06:40:47;7.83;;;7.43;;
253;SDS011;590;48.772;8.846;2023-02-15T06:43:15;7.80;;;7.40;;
253;SDS011;590;48.772;8.846;2023-02-15T06:45:45;7.87;;;7.47;;
253;SDS011;590;48.772;8.846;2023-02-15T06:48:13;7.50;;;7.10;;
253;SDS011;590;48.772;8.846;2023-02-15T06:50:45;7.13;;;6.73;;
253;SDS011;590;48.772;8.846;2023-02-15T06:53:13;8.20;;;7.80;;
253;SDS011;590;48.772;8.846;2023-02-15T06:55:41;7.93;;;7.53;;
253;SDS011;590;48.772;8.846;2023-02-15T06:58:10;7.10;;;6.70;;
253;SDS011;590;48.772;8.846;2023-02-15T07:00:38;7.37;;;6.97;;
253;SDS011;590;48.772;8.846;2023-02-15T07:03:08;7.40;;;7.00;;
253;SDS011;590;48.772;8.846;2023-02-15T07:05:36;6.90;;;6.50;;
253;SDS011;590;48.772;8.846;2023-02-15T07:08:06;7.93;;;7.53;;
253;SDS011;590;48.772;8.846;2023-02-15T07:10:35;7.90;;;7.50;;
253;SDS011;590;48.772;8.846;2023-02-15T07:13:03;7.80;;;7.40;;
253;SDS011;590;48.772;8.846;2023-02-15T07:15:30;8.53;;;8.03;;
253;SDS011;590;48.772;8.846;2023-02-15T07:17:58;7.30;;;6.90;;
253;SDS011;590;48.772;8.846;2023-02-15T07:20:26;7.60;;;7.20;;
253;SDS011;590;48.772;8.846;2023-02-15T07:22:55;7.73;;;7.33;;
253;SDS011;590;48.772;8.846;2023-02-15T07:25:24;7.80;;;7.40;;
253;SDS011;590;48.772;8.846;2023-02-15T07:27:55;7.63;;;7.23;;
253;SDS011;590;48.772;8.846;2023-02-15T07:30:23;8.00;;;7.60;;
253;SDS011;590;48.772;8.846;2023-02-15T07:32:54;7.53;;;7.13;;
253;SDS011;590;48.772;8.846;2023-02-15T07:35:46;7.30;;;6.90;;
253;SDS011;590;48.772;8.846;2023-02-15T07:38:14;7.13;;;6.73;;
253;SDS011;590;48.772;8.846;2023-02-15T07:40:44;7.77;;;7.37;;
253;SDS011;590;48.772;8.846;2023-02-15T07:43:12;8.10;;;7.70;;
253;SDS011;590;48.772;8.846;2023-02-15T07:45:40;7.67;;;7.27;;
253;SDS011;590;48.772;8.846;2023-02-15T07:48:09;7.33;;;6.93;;
253;SDS011;590;48.772;8.846;2023-02-15T07:50:40;8.60;;;8.10;;
253;SDS011;590;48.772;8.846;2023-02-15T07:53:08;7.33;;;6.93;;
253;SDS011;590;48.772;8.846;2023-02-15T07:55:36;7.70;;;7.30;;
253;SDS011;590;48.772;8.846;2023-02-15T07:58:06;7.93;;;7.53;;
253;SDS011;590;48.772;8.846;2023-02-15T08:00:35;7.73;;;7.33;;
253;SDS011;590;48.772;8.846;2023-02-15T08:03:22;8.60;;;8.10;;
253;SDS011;590;48.772;8.846;2023-02-15T08:05:55;7.60;;;7.20;;
253;SDS011;590;48.772;8.846;2023-02-15T08:08:25;8.27;;;7.87;;
253;SDS011;590;48.772;8.846;2023-02-15T08:11:00;8.07;;;7.67;;
253;SDS011;590;48.772;8.846;2023-02-15T08:13:49;8.20;;;7.80;;
253;SDS011;590;48.772;8.846;2023-02-15T08:16:22;7.30;;;6.90;;
253;SDS011;590;48.772;8.846;2023-02-15T08:18:51;8.20;;;7.80;;
253;SDS011;590;48.772;8.846;2023-02-15T08:21:20;8.63;;;8.13;;
253;SDS011;590;48.772;8.846;2023-02-15T08:23:50;8.10;;;7.70;;
253;SDS011;590;48.772;8.846;2023-02-15T08:26:20;9.03;;;8.53;;
253;SDS011;590;48.772;8.846;2023-02-15T08:28:50;8.73;;;8.23;;
253;SDS011;590;48.772;8.846;2023-02-15T08:31:18;8.63;;;8.13;;
253;SDS011;590;48.772;8.846;2023-02-15T08:33:47;8.90;;;8.40;;
253;SDS011;590;48.772;8.846;2023-02-15T08:36:17;8.90;;;8.40;;
253;SDS011;590;48.772;8.846;2023-02-15T08:38:47;6.10;;;5.47;;
253;SDS011;590;48.772;8.846;2023-02-15T08:41:17;8.90;;;8.40;;
253;SDS011;590;48.772;8.846;2023-02-15T08:43:47;8.90;;;8.40;;
253;SDS011;590;48.772;8.846;2023-02-15T08:46:18;8.80;;;8.30;;
253;SDS011;590;48.772;8.846;2023-02-15T08:48:48;9.40;;;8.90;;
253;SDS011;590;48.772;8.846;2023-02-15T08:51:16;7.70;;;7.30;;
253;SDS011;590;48.772;8.846;2023-02-15T08:53:47;8.43;;;7.97;;
253;SDS011;590;48.772;8.846;2023-02-15T08:56:16;8.87;;;8.37;;
253;SDS011;590;48.772;8.846;2023-02-15T08:58:45;8.53;;;8.07;;
253;SDS011;590;48.772;8.846;2023-02-15T09:01:14;9.30;;;8.80;;
253;SDS011;590;48.772;8.846;2023-02-15T09:03:46;9.50;;;9.00;;
253;SDS011;590;48.772;8.846;2023-02-15T09:06:16;8.10;;;7.70;;
253;SDS011;590;48.772;8.846;2023-02-15T09:08:44;8.47;;;8.00;;
253;SDS011;590;48.772;8.846;2023-02-15T09:11:15;8.03;;;7.63;;
253;SDS011;590;48.772;8.846;2023-02-15T09:13:49;7.97;;;7.57;;
253;SDS011;590;48.772;8.846;2023-02-15T09:16:20;8.20;;;7.80;;
253;SDS011;590;48.772;8.846;2023-02-15T09:18:50;8.83;;;8.33;;
253;SDS011;590;48.772;8.846;2023-02-15T09:21:19;8.17;;;7.77;;
253;SDS011;590;48.772;8.846;2023-02-15T09:23:49;8.77;;;8.27;;
253;SDS011;590;48.772;8.846;2023-02-15T09:26:19;9.27;;;8.77;;
253;SDS011;590;48.772;8.846;2023-02-15T09:28:51;9.13;;;8.63;;
253;SDS011;590;48.772;8.846;2023-02-15T09:31:22;8.23;;;7.83;;
253;SDS011;590;48.772;8.846;2023-02-15T09:33:52;8.50;;;8.00;;
253;SDS011;590;48.772;8.846;2023-02-15T09:36:22;10.00;;;9.50;;
253;SDS011;590;48.772;8.846;2023-02-15T09:38:52;9.07;;;8.57;;
253;SDS011;590;48.772;8.846;2023-02-15T09:44:28;9.20;;;8.70;;
253;SDS011;590;48.772;8.846;2023-02-15T09:47:10;9.20;;;8.70;;
253;SDS011;590;48.772;8.846;2023-02-15T09:50:08;9.10;;;8.60;;
253;SDS011;590;48.772;8.846;2023-02-15T09:52:45;8.63;;;8.13;;
253;SDS011;590;48.772;8.846;2023-02-15T09:55:24;9.03;;;8.53;;
253;SDS011;590;48.772;8.846;2023-02-15T09:58:11;9.50;;;9.00;;
253;SDS011;590;48.772;8.846;2023-02-15T10:00:49;10.20;;;9.70;;
253;SDS011;590;48.772;8.846;2023-02-15T10:03:27;9.70;;;9.20;;
253;SDS011;590;48.772;8.846;2023-02-15T10:06:13;10.47;;;9.93;;
253;SDS011;590;48.772;8.846;2023-02-15T10:08:54;9.83;;;9.33;;
253;SDS011;590;48.772;8.846;2023-02-15T10:11:36;9.03;;;8.53;;
253;SDS011;590;48.772;8.846;2023-02-15T10:14:18;9.97;;;9.47;;
253;SDS011;590;48.772;8.846;2023-02-15T10:17:11;9.70;;;9.20;;
253;SDS011;590;48.772;8.846;2023-02-15T10:19:50;9.60;;;9.10;;
253;SDS011;590;48.772;8.846;2023-02-15T10:22:35;9.73;;;9.23;;
253;SDS011;590;48.772;8.846;2023-02-15T10:25:14;10.00;;;9.50;;
253;SDS011;590;48.772;8.846;2023-02-15T10:27:51;9.43;;;8.93;;
253;SDS011;590;48.772;8.846;2023-02-15T10:30:20;9.87;;;9.37;;
253;SDS011;590;48.772;8.846;2023-02-15T10:32:59;9.70;;;9.20;;
253;SDS011;590;48.772;8.846;2023-02-15T10:35:32;10.73;;;10.13;;
253;SDS011;590;48.772;8.846;2023-02-15T10:38:12;9.20;;;8.70;;
253;SDS011;590;48.772;8.846;2023-02-15T10:40:51;9.63;;;9.13;;
253;SDS011;590;48.772;8.846;2023-02-15T10:43:41;9.63;;;9.13;;
253;SDS011;590;48.772;8.846;2023-02-15T10:46:33;9.70;;;9.20;;
253;SDS011;590;48.772;8.846;2023-02-15T10:49:19;9.53;;;9.03;;
253;SDS011;590;48.772;8.846;2023-02-15T10:52:14;9.10;;;8.60;;
253;SDS011;590;48.772;8.846;2023-02-15T10:54:55;9.40;;;8.90;;
253;SDS011;590;48.772;8.846;2023-02-15T10:57:32;9.47;;;8.97;;
253;SDS011;590;48.772;8.846;2023-02-15T11:00:09;9.80;;;9.30;;
253;SDS011;590;48.772;8.846;2023-02-15T11:02:48;9.57;;;9.07;;
253;SDS011;590;48.772;8.846;2023-02-15T11:05:27;8.80;;;8.30;;
253;SDS011;590;48.772;8.846;2023-02-15T11:08:07;10.00;;;9.50;;
253;SDS011;590;48.772;8.846;2023-02-15T11:10:39;9.10;;;8.60;;
253;SDS011;590;48.772;8.846;2023-02-15T11:13:13;8.33;;;7.90;;
253;SDS011;590;48.772;8.846;2023-02-15T11:15:43;8.30;;;7.90;;
253;SDS011;590;48.772;8.846;2023-02-15T11:18:15;8.90;;;8.40;;
253;SDS011;590;48.772;8.846;2023-02-15T11:20:50;9.23;;;8.73;;
253;SDS011;590;48.772;8.846;2023-02-15T11:23:22;9.17;;;8.67;;
253;SDS011;590;48.772;8.846;2023-02-15T11:25:56;8.27;;;7.87;;
253;SDS011;590;48.772;8.846;2023-02-15T11:28:27;8.60;;;8.10;;
253;SDS011;590;48.772;8.846;2023-02-15T11:31:00;9.33;;;8.83;;
253;SDS011;590;48.772;8.846;2023-02-15T11:33:39;7.70;;;7.30;;
253;SDS011;590;48.772;8.846;2023-02-15T11:36:12;9.00;;;8.50;;
253;SDS011;590;48.772;8.846;2023-02-15T11:38:43;8.10;;;7.70;;
253;SDS011;590;48.772;8.846;2023-02-15T11:41:16;8.10;;;7.70;;
253;SDS011;590;48.772;8.846;2023-02-15T11:43:49;7.67;;;7.27;;
253;SDS011;590;48.772;8.846;2023-02-15T11:46:21;8.03;;;7.63;;
253;SDS011;590;48.772;8.846;2023-02-15T11:48:50;8.03;;;7.63;;
253;SDS011;590;48.772;8.846;2023-02-15T11:51:18;7.67;;;7.27;;
253;SDS011;590;48.772;8.846;2023-02-15T11:53:50;8.13;;;7.73;;
253;SDS011;590;48.772;8.846;2023-02-15T11:56:20;8.07;;;7.67;;
253;SDS011;590;48.772;8.846;2023-02-15T11:58:51;8.13;;;7.73;;
253;SDS011;590;48.772;8.846;2023-02-15T12:01:23;7.97;;;7.57;;
253;SDS011;590;48.772;8.846;2023-02-15T12:03:57;8.53;;;8.03;;
253;SDS011;590;48.772;8.846;2023-02-15T12:06:29;7.20;;;6.80;;
253;SDS011;590;48.772;8.846;2023-02-15T12:09:02;7.93;;;7.53;;
253;SDS011;590;48.772;8.846;2023-02-15T12:11:36;7.13;;;6.73;;
253;SDS011;590;48.772;8.846;2023-02-15T12:14:06;7.30;;;6.90;;
253;SDS011;590;48.772;8.846;2023-02-15T12:16:42;7.83;;;7.43;;
253;SDS011;590;48.772;8.846;2023-02-15T12:19:22;7.53;;;7.13;;
253;SDS011;590;48.772;8.846;2023-02-15T12:21:56;7.20;;;6.80;;
253;SDS011;590;48.772;8.846;2023-02-15T12:24:48;6.80;;;6.40;;
253;SDS011;590;48.772;8.846;2023-02-15T12:27:26;6.73;;;6.33;;
253;SDS011;590;48.772;8.846;2023-02-15T12:29:58;7.10;;;6.70;;
253;SDS011;590;48.772;8.846;2023-02-15T12:32:30;7.07;;;6.67;;
253;SDS011;590;48.772;8.846;2023-02-15T12:35:01;6.80;;;6.40;;
253;SDS011;590;48.772;8.846;2023-02-15T12:37:36;7.13;;;6.73;;
253;SDS011;590;48.772;8.846;2023-02-15T12:40:18;6.10;;;5.80;;
253;SDS011;590;48.772;8.846;2023-02-15T12:42:58;7.10;;;6.70;;
253;SDS011;590;48.772;8.846;2023-02-15T12:45:27;6.90;;;6.50;;
253;SDS011;590;48.772;8.846;2023-02-15T12:48:19;6.50;;;6.10;;
253;SDS011;590;48.772;8.846;2023-02-15T12:50:49;6.17;;;5.87;;
253;SDS011;590;48.772;8.846;2023-02-15T12:53:30;5.70;;;5.40;;
253;SDS011;590;48.772;8.846;2023-02-15T12:56:01;6.50;;;6.10;;
253;SDS011;590;48.772;8.846;2023-02-15T12:58:31;5.90;;;5.60;;
253;SDS011;590;48.772;8.846;2023-02-15T13:01:04;5.90;;;5.60;;
253;SDS011;590;48.772;8.846;2023-02-15T13:03:53;5.80;;;5.50;;
253;SDS011;590;48.772;8.846;2023-02-15T13:06:25;5.63;;;5.33;;
253;SDS011;590;48.772;8.846;2023-02-15T13:08:54;6.70;;;6.30;;
253;SDS011;590;48.772;8.846;2023-02-15T13:11:25;5.93;;;5.63;;
253;SDS011;590;48.772;8.846;2023-02-15T13:14:02;5.83;;;5.53;;
253;SDS011;590;48.772;8.846;2023-02-15T13:16:32;5.90;;;5.60;;
253;SDS011;590;48.772;8.846;2023-02-15T13:19:04;5.90;;;5.60;;
253;SDS011;590;48.772;8.846;2023-02-15T13:21:39;5.87;;;5.57;;
253;SDS011;590;48.772;8.846;2023-02-15T13:24:15;5.07;;;4.77;;
253;SDS011;590;48.772;8.846;2023-02-15T13:26:47;6.07;;;5.77;;
253;SDS011;590;48.772;8.846;2023-02-15T13:29:19;5.83;;;5.53;;
253;SDS011;590;48.772;8.846;2023-02-15T13:31:50;5.43;;;5.13;;
253;SDS011;590;48.772;8.846;2023-02-15T13:34:20;5.70;;;5.40;;
253;SDS011;590;48.772;8.846;2023-02-15T13:36:53;5.20;;;4.90;;
253;SDS011;590;48.772;8.846;2023-02-15T13:39:29;5.57;;;5.27;;
253;SDS011;590;48.772;8.846;2023-02-15T13:42:05;5.67;;;5.37;;
253;SDS011;590;48.772;8.846;2023-02-15T13:44:57;4.83;;;4.53;;
253;SDS011;590;48.772;8.846;2023-02-15T13:47:36;5.90;;;5.60;;
253;SDS011;590;48.772;8.846;2023-02-15T13:50:28;5.83;;;5.53;;
253;SDS011;590;48.772;8.846;2023-02-15T13:53:10;5.63;;;5.33;;
253;SDS011;590;48.772;8.846;2023-02-15T13:55:52;5.77;;;5.47;;
253;SDS011;590;48.772;8.846;2023-02-15T14:01:39;4.90;;;4.60;;
253;SDS011;590;48.772;8.846;2023-02-15T14:04:17;5.37;;;5.07;;
253;SDS011;590;48.772;8.846;2023-02-15T14:07:03;4.53;;;4.23;;
253;SDS011;590;48.772;8.846;2023-02-15T14:10:03;5.20;;;4.90;;
253;SDS011;590;48.772;8.846;2023-02-15T14:12:49;5.37;;;5.07;;
253;SDS011;590;48.772;8.846;2023-02-15T14:15:34;5.20;;;4.90;;
253;SDS011;590;48.772;8.846;2023-02-15T14:18:15;5.43;;;5.13;;
253;SDS011;590;48.772;8.846;2023-02-15T14:20:52;5.20;;;4.90;;
253;SDS011;590;48.772;8.846;2023-02-15T14:23:30;4.90;;;4.60;;
253;SDS011;590;48.772;8.846;2023-02-15T14:26:10;4.70;;;4.40;;
253;SDS011;590;48.772;8.846;2023-02-15T14:28:46;4.50;;;4.20;;
253;SDS011;590;48.772;8.846;2023-02-15T14:31:18;4.83;;;4.53;;
253;SDS011;590;48.772;8.846;2023-02-15T14:33:55;4.47;;;4.17;;
253;SDS011;590;48.772;8.846;2023-02-15T14:36:24;4.70;;;4.40;;
253;SDS011;590;48.772;8.846;2023-02-15T14:38:59;4.50;;;4.20;;
253;SDS011;590;48.772;8.846;2023-02-15T14:41:59;5.50;;;5.20;;
253;SDS011;590;48.772;8.846;2023-02-15T14:57:25;4.80;;;4.50;;
253;SDS011;590;48.772;8.846;2023-02-15T15:03:19;4.33;;;4.03;;
253;SDS011;590;48.772;8.846;2023-02-15T15:05:55;3.93;;;3.73;;
253;SDS011;590;48.772;8.846;2023-02-15T15:09:19;4.80;;;4.50;;
253;SDS011;590;48.772;8.846;2023-02-15T15:28:22;4.60;;;4.30;;
253;SDS011;590;48.772;8.846;2023-02-15T15:31:24;4.80;;;4.50;;
253;SDS011;590;48.772;8.846;2023-02-15T15:34:18;4.33;;;4.03;;
253;SDS011;590;48.772;8.846;2023-02-15T15:43:31;4.40;;;4.10;;
253;SDS011;590;48.772;8.846;2023-02-15T15:46:26;4.23;;;3.97;;
253;SDS011;590;48.772;8.846;2023-02-15T15:49:06;3.80;;;3.60;;
253;SDS011;590;48.772;8.846;2023-02-15T15:51:39;4.73;;;4.43;;
253;SDS011;590;48.772;8.846;2023-02-15T15:54:11;4.40;;;4.10;;
253;SDS011;590;48.772;8.846;2023-02-15T15:56:45;3.33;;;3.13;;
253;SDS011;590;48.772;8.846;2023-02-15T15:59:18;4.67;;;4.37;;
253;SDS011;590;48.772;8.846;2023-02-15T16:01:51;4.77;;;4.47;;
253;SDS011;590;48.772;8.846;2023-02-15T16:04:24;3.93;;;3.73;;
253;SDS011;590;48.772;8.846;2023-02-15T16:06:56;5.03;;;4.73;;
253;SDS011;590;48.772;8.846;2023-02-15T16:09:26;4.40;;;4.10;;
253;SDS011;590;48.772;8.846;2023-02-15T16:11:57;4.00;;;3.80;;
253;SDS011;590;48.772;8.846;2023-02-15T16:14:29;4.40;;;4.10;;
253;SDS011;590;48.772;8.846;2023-02-15T16:16:59;4.03;;;3.83;;
253;SDS011;590;48.772;8.846;2023-02-15T16:19:30;4.63;;;4.33;;
253;SDS011;590;48.772;8.846;2023-02-15T16:22:02;4.60;;;4.30;;
253;SDS011;590;48.772;8.846;2023-02-15T16:27:38;4.17;;;3.93;;
253;SDS011;590;48.772;8.846;2023-02-15T16:30:25;4.00;;;3.80;;
253;SDS011;590;48.772;8.846;2023-02-15T16:33:03;4.70;;;4.40;;
253;SDS011;590;48.772;8.846;2023-02-15T16:35:32;4.70;;;4.40;;
253;SDS011;590;48.772;8.846;2023-02-15T16:45:38;4.80;;;4.50;;
253;SDS011;590;48.772;8.846;2023-02-15T16:48:34;5.03;;;4.73;;
253;SDS011;590;48.772;8.846;2023-02-15T17:31:31;4.60;;;4.30;;
253;SDS011;590;48.772;8.846;2023-02-15T17:34:00;5.20;;;4.90;;
253;SDS011;590;48.772;8.846;2023-02-15T17:36:29;4.97;;;4.67;;
253;SDS011;590;48.772;8.846;2023-02-15T17:38:59;4.93;;;4.63;;
253;SDS011;590;48.772;8.846;2023-02-15T17:41:31;4.47;;;4.17;;
253;SDS011;590;48.772;8.846;2023-02-15T17:44:00;5.40;;;5.10;;
253;SDS011;590;48.772;8.846;2023-02-15T17:46:32;4.93;;;4.63;;
253;SDS011;590;48.772;8.846;2023-02-15T17:49:02;4.60;;;4.30;;
253;SDS011;590;48.772;8.846;2023-02-15T17:51:30;5.33;;;5.03;;
253;SDS011;590;48.772;8.846;2023-02-15T17:54:01;4.43;;;4.13;;
253;SDS011;590;48.772;8.846;2023-02-15T17:56:47;5.53;;;5.23;;
253;SDS011;590;48.772;8.846;2023-02-15T17:59:15;4.57;;;4.27;;
253;SDS011;590;48.772;8.846;2023-02-15T18:01:45;5.07;;;4.77;;
253;SDS011;590;48.772;8.846;2023-02-15T18:04:32;4.90;;;4.60;;
253;SDS011;590;48.772;8.846;2023-02-15T18:07:20;5.13;;;4.83;;
253;SDS011;590;48.772;8.846;2023-02-15T18:10:11;4.90;;;4.60;;
253;SDS011;590;48.772;8.846;2023-02-15T18:12:58;4.23;;;3.97;;
253;SDS011;590;48.772;8.846;2023-02-15T18:15:26;5.43;;;5.13;;
253;SDS011;590;48.772;8.846;2023-02-15T18:17:55;5.10;;;4.80;;
253;SDS011;590;48.772;8.846;2023-02-15T18:20:24;5.03;;;4.73;;
253;SDS011;590;48.772;8.846;2023-02-15T18:23:02;5.20;;;4.90;;
253;SDS011;590;48.772;8.846;2023-02-15T18:25:30;4.90;;;4.60;;
253;SDS011;590;48.772;8.846;2023-02-15T18:27:58;4.73;;;4.43;;
253;SDS011;590;48.772;8.846;2023-02-15T18:30:26;6.00;;;5.70;;
253;SDS011;590;48.772;8.846;2023-02-15T18:32:55;5.10;;;4.80;;
253;SDS011;590;48.772;8.846;2023-02-15T18:35:27;5.07;;;4.77;;
253;SDS011;590;48.772;8.846;2023-02-15T18:37:58;5.30;;;5.00;;
253;SDS011;590;48.772;8.846;2023-02-15T18:40:27;5.43;;;5.13;;
253;SDS011;590;48.772;8.846;2023-02-15T18:42:56;5.70;;;5.37;;
253;SDS011;590;48.772;8.846;2023-02-15T18:45:25;5.20;;;4.90;;
253;SDS011;590;48.772;8.846;2023-02-15T18:47:59;5.67;;;5.37;;
253;SDS011;590;48.772;8.846;2023-02-15T18:50:27;5.10;;;4.80;;
253;SDS011;590;48.772;8.846;2023-02-15T18:52:59;5.73;;;5.43;;
253;SDS011;590;48.772;8.846;2023-02-15T18:55:29;5.53;;;5.23;;
253;SDS011;590;48.772;8.846;2023-02-15T18:57:59;5.07;;;4.77;;
253;SDS011;590;48.772;8.846;2023-02-15T19:00:27;5.50;;;5.20;;
253;SDS011;590;48.772;8.846;2023-02-15T19:02:59;5.40;;;5.10;;
253;SDS011;590;48.772;8.846;2023-02-15T19:05:29;5.60;;;5.30;;
253;SDS011;590;48.772;8.846;2023-02-15T19:07:59;6.03;;;5.73;;
253;SDS011;590;48.772;8.846;2023-02-15T19:10:29;5.40;;;5.10;;
253;SDS011;590;48.772;8.846;2023-02-15T19:12:59;6.10;;;5.80;;
253;SDS011;590;48.772;8.846;2023-02-15T19:15:27;5.60;;;5.30;;
253;SDS011;590;48.772;8.846;2023-02-15T19:17:56;5.23;;;4.93;;
253;SDS011;590;48.772;8.846;2023-02-15T19:20:27;4.93;;;4.63;;
253;SDS011;590;48.772;8.846;2023-02-15T19:22:57;5.80;;;5.50;;
253;SDS011;590;48.772;8.846;2023-02-15T19:25:28;5.50;;;5.20;;
253;SDS011;590;48.772;8.846;2023-02-15T19:27:58;6.33;;;5.97;;
253;SDS011;590;48.772;8.846;2023-02-15T19:30:27;5.97;;;5.67;;
253;SDS011;590;48.772;8.846;2023-02-15T19:32:59;6.10;;;5.80;;
253;SDS011;590;48.772;8.846;2023-02-15T19:35:28;6.67;;;5.80;;
253;SDS011;590;48.772;8.846;2023-02-15T19:38:00;6.47;;;6.07;;
253;SDS011;590;48.772;8.846;2023-02-15T19:40:31;6.70;;;6.30;;
253;SDS011;590;48.772;8.846;2023-02-15T19:43:01;6.23;;;5.90;;
253;SDS011;590;48.772;8.846;2023-02-15T19:45:31;6.53;;;6.13;;
253;SDS011;590;48.772;8.846;2023-02-15T19:48:00;6.67;;;6.27;;
253;SDS011;590;48.772;8.846;2023-02-15T19:50:29;6.33;;;5.97;;
253;SDS011;590;48.772;8.846;2023-02-15T19:53:00;6.60;;;6.20;;
253;SDS011;590;48.772;8.846;2023-02-15T19:55:29;6.43;;;6.03;;
253;SDS011;590;48.772;8.846;2023-02-15T19:57:59;6.50;;;6.10;;
253;SDS011;590;48.772;8.846;2023-02-15T20:00:29;5.77;;;5.47;;
253;SDS011;590;48.772;8.846;2023-02-15T20:02:58;6.50;;;6.10;;
253;SDS011;590;48.772;8.846;2023-02-15T20:05:28;7.00;;;6.60;;
253;SDS011;590;48.772;8.846;2023-02-15T20:07:59;6.63;;;6.23;;
253;SDS011;590;48.772;8.846;2023-02-15T20:10:29;6.93;;;6.53;;
253;SDS011;590;48.772;8.846;2023-02-15T20:12:58;6.80;;;6.40;;
253;SDS011;590;48.772;8.846;2023-02-15T20:15:27;6.87;;;6.47;;